sensor_id;sensor_type;location;lat;lon;timestamp;temperature;humidity
4215;DHT22;2121;48.062;7.850;2023-06-22T00:00:53;19.90;99.90
4215;DHT22;2121;48.062;7.850;2023-06-22T00:03:21;19.90;99.90
4215;DHT22;2121;48.062;7.850;2023-06-22T00:05:48;19.90;99.90
4215;DHT22;2121;48.062;7.850;2023-06-22T00:08:14;19.80;99.90
4215;DHT22;2121;48.062;7.850;2023-06-22T00:10:41;19.80;99.90
4215;DHT22;2121;48.062;7.850;2023-06-22T00:13:07;19.70;99.90
4215;DHT22;2121;48.062;7.850;2023-06-22T00:15:34;19.60;99.90
4215;DHT22;2121;48.062;7.850;2023-06-22T00:18:00;19.50;99.90
4215;DHT22;2121;48.062;7.850;2023-06-22T00:20:26;19.50;99.90
4215;DHT22;2121;48.062;7.850;2023-06-22T00:22:56;19.40;99.90
4215;DHT22;2121;48.062;7.850;2023-06-22T00:25:23;19.50;99.90
4215;DHT22;2121;48.062;7.850;2023-06-22T00:27:49;19.40;99.90
4215;DHT22;2121;48.062;7.850;2023-06-22T00:30:16;19.30;99.90
4215;DHT22;2121;48.062;7.850;2023-06-22T00:32:43;19.20;99.90
4215;DHT22;2121;48.062;7.850;2023-06-22T00:35:09;19.20;99.90
4215;DHT22;2121;48.062;7.850;2023-06-22T00:37:36;19.20;99.90
4215;DHT22;2121;48.062;7.850;2023-06-22T00:40:06;19.20;99.90
4215;DHT22;2121;48.062;7.850;2023-06-22T00:42:33;19.10;99.90
4215;DHT22;2121;48.062;7.850;2023-06-22T00:44:58;19.10;99.90
4215;DHT22;2121;48.062;7.850;2023-06-22T00:47:24;19.10;99.90
4215;DHT22;2121;48.062;7.850;2023-06-22T00:49:50;19.20;99.90
4215;DHT22;2121;48.062;7.850;2023-06-22T00:52:20;19.20;99.90
4215;DHT22;2121;48.062;7.850;2023-06-22T00:54:53;19.10;99.90
4215;DHT22;2121;48.062;7.850;2023-06-22T00:57:20;19.10;99.90
4215;DHT22;2121;48.062;7.850;2023-06-22T00:59:48;19.00;99.90
4215;DHT22;2121;48.062;7.850;2023-06-22T01:02:14;18.90;99.90
4215;DHT22;2121;48.062;7.850;2023-06-22T01:04:40;18.90;99.90
4215;DHT22;2121;48.062;7.850;2023-06-22T01:10:05;18.90;99.90
4215;DHT22;2121;48.062;7.850;2023-06-22T01:12:53;18.80;99.90
4215;DHT22;2121;48.062;7.850;2023-06-22T01:15:37;18.80;99.90
4215;DHT22;2121;48.062;7.850;2023-06-22T01:18:08;18.70;99.90
4215;DHT22;2121;48.062;7.850;2023-06-22T01:20:35;18.80;99.90
4215;DHT22;2121;48.062;7.850;2023-06-22T01:23:20;18.90;99.90
4215;DHT22;2121;48.062;7.850;2023-06-22T01:29:04;18.80;99.90
4215;DHT22;2121;48.062;7.850;2023-06-22T01:31:31;18.80;99.90
4215;DHT22;2121;48.062;7.850;2023-06-22T01:34:03;18.90;99.90
4215;DHT22;2121;48.062;7.850;2023-06-22T01:36:32;18.90;99.90
4215;DHT22;2121;48.062;7.850;2023-06-22T01:38:59;18.80;99.90
4215;DHT22;2121;48.062;7.850;2023-06-22T01:41:28;18.70;99.90
4215;DHT22;2121;48.062;7.850;2023-06-22T01:43:55;18.60;99.90
4215;DHT22;2121;48.062;7.850;2023-06-22T01:46:21;18.60;99.90
4215;DHT22;2121;48.062;7.850;2023-06-22T01:48:48;18.60;99.90
4215;DHT22;2121;48.062;7.850;2023-06-22T01:51:15;18.50;99.90
4215;DHT22;2121;48.062;7.850;2023-06-22T01:53:40;18.50;99.90
4215;DHT22;2121;48.062;7.850;2023-06-22T01:56:06;18.50;99.90
4215;DHT22;2121;48.062;7.850;2023-06-22T01:58:33;18.50;99.90
4215;DHT22;2121;48.062;7.850;2023-06-22T02:01:14;18.50;99.90
4215;DHT22;2121;48.062;7.850;2023-06-22T02:04:13;18.60;99.90
4215;DHT22;2121;48.062;7.850;2023-06-22T02:06:43;18.60;99.90
4215;DHT22;2121;48.062;7.850;2023-06-22T02:09:14;18.60;99.90
4215;DHT22;2121;48.062;7.850;2023-06-22T02:11:44;18.50;99.90
4215;DHT22;2121;48.062;7.850;2023-06-22T02:14:13;18.40;99.90
4215;DHT22;2121;48.062;7.850;2023-06-22T02:16:39;18.40;99.90
4215;DHT22;2121;48.062;7.850;2023-06-22T02:19:06;18.50;99.90
4215;DHT22;2121;48.062;7.850;2023-06-22T02:21:32;18.50;99.90
4215;DHT22;2121;48.062;7.850;2023-06-22T02:23:58;18.40;99.90
4215;DHT22;2121;48.062;7.850;2023-06-22T02:26:25;18.40;99.90
4215;DHT22;2121;48.062;7.850;2023-06-22T02:28:52;18.30;99.90
4215;DHT22;2121;48.062;7.850;2023-06-22T02:31:18;18.20;99.90
4215;DHT22;2121;48.062;7.850;2023-06-22T02:33:45;18.10;99.90
4215;DHT22;2121;48.062;7.850;2023-06-22T02:36:11;18.00;99.90
4215;DHT22;2121;48.062;7.850;2023-06-22T02:38:40;18.10;99.90
4215;DHT22;2121;48.062;7.850;2023-06-22T02:41:16;18.10;99.90
4215;DHT22;2121;48.062;7.850;2023-06-22T02:43:44;18.10;99.90
4215;DHT22;2121;48.062;7.850;2023-06-22T02:46:13;18.00;99.90
4215;DHT22;2121;48.062;7.850;2023-06-22T02:48:42;18.00;99.90
4215;DHT22;2121;48.062;7.850;2023-06-22T02:51:08;18.00;99.90
4215;DHT22;2121;48.062;7.850;2023-06-22T02:53:34;18.00;99.90
4215;DHT22;2121;48.062;7.850;2023-06-22T02:56:02;17.90;99.90
4215;DHT22;2121;48.062;7.850;2023-06-22T02:58:31;17.90;99.90
4215;DHT22;2121;48.062;7.850;2023-06-22T03:01:04;17.90;99.90
4215;DHT22;2121;48.062;7.850;2023-06-22T03:03:31;17.80;99.90
4215;DHT22;2121;48.062;7.850;2023-06-22T03:05:57;17.80;99.90
4215;DHT22;2121;48.062;7.850;2023-06-22T03:08:23;17.80;99.90
4215;DHT22;2121;48.062;7.850;2023-06-22T03:10:48;17.80;99.90
4215;DHT22;2121;48.062;7.850;2023-06-22T03:13:14;17.70;99.90
4215;DHT22;2121;48.062;7.850;2023-06-22T03:15:40;17.60;99.90
4215;DHT22;2121;48.062;7.850;2023-06-22T03:18:05;17.60;99.90
4215;DHT22;2121;48.062;7.850;2023-06-22T03:20:31;17.60;99.90
4215;DHT22;2121;48.062;7.850;2023-06-22T03:22:59;17.60;99.90
4215;DHT22;2121;48.062;7.850;2023-06-22T03:25:25;17.60;99.90
4215;DHT22;2121;48.062;7.850;2023-06-22T03:27:50;17.60;99.90
4215;DHT22;2121;48.062;7.850;2023-06-22T03:30:16;17.60;99.90
4215;DHT22;2121;48.062;7.850;2023-06-22T03:32:42;17.60;99.90
4215;DHT22;2121;48.062;7.850;2023-06-22T03:35:08;17.60;99.90
4215;DHT22;2121;48.062;7.850;2023-06-22T03:37:34;17.50;99.90
4215;DHT22;2121;48.062;7.850;2023-06-22T03:40:00;17.50;99.90
4215;DHT22;2121;48.062;7.850;2023-06-22T03:42:26;17.50;99.90
4215;DHT22;2121;48.062;7.850;2023-06-22T03:44:52;17.50;99.90
4215;DHT22;2121;48.062;7.850;2023-06-22T03:47:18;17.50;99.90
4215;DHT22;2121;48.062;7.850;2023-06-22T03:49:43;17.50;99.90
4215;DHT22;2121;48.062;7.850;2023-06-22T03:52:09;17.50;99.90
4215;DHT22;2121;48.062;7.850;2023-06-22T03:54:36;17.60;99.90
4215;DHT22;2121;48.062;7.850;2023-06-22T03:57:02;17.70;99.90
4215;DHT22;2121;48.062;7.850;2023-06-22T03:59:28;17.70;99.90
4215;DHT22;2121;48.062;7.850;2023-06-22T04:01:53;17.70;99.90
4215;DHT22;2121;48.062;7.850;2023-06-22T04:04:20;17.80;99.90
4215;DHT22;2121;48.062;7.850;2023-06-22T04:06:46;17.80;99.90
4215;DHT22;2121;48.062;7.850;2023-06-22T04:09:12;17.80;99.90
4215;DHT22;2121;48.062;7.850;2023-06-22T04:11:38;17.80;99.90
4215;DHT22;2121;48.062;7.850;2023-06-22T04:14:03;17.80;99.90
4215;DHT22;2121;48.062;7.850;2023-06-22T04:16:29;17.80;99.90
4215;DHT22;2121;48.062;7.850;2023-06-22T04:18:55;17.80;99.90
4215;DHT22;2121;48.062;7.850;2023-06-22T04:21:20;17.90;99.90
4215;DHT22;2121;48.062;7.850;2023-06-22T04:23:46;17.90;99.90
4215;DHT22;2121;48.062;7.850;2023-06-22T04:26:13;18.00;99.90
4215;DHT22;2121;48.062;7.850;2023-06-22T04:28:41;18.10;99.90
4215;DHT22;2121;48.062;7.850;2023-06-22T04:31:07;18.10;99.90
4215;DHT22;2121;48.062;7.850;2023-06-22T04:33:33;18.10;99.90
4215;DHT22;2121;48.062;7.850;2023-06-22T04:35:59;18.10;99.90
4215;DHT22;2121;48.062;7.850;2023-06-22T04:38:27;18.20;99.90
4215;DHT22;2121;48.062;7.850;2023-06-22T04:40:53;18.30;99.90
4215;DHT22;2121;48.062;7.850;2023-06-22T04:43:19;18.30;99.90
4215;DHT22;2121;48.062;7.850;2023-06-22T04:45:45;18.40;99.90
4215;DHT22;2121;48.062;7.850;2023-06-22T04:48:11;18.50;99.90
4215;DHT22;2121;48.062;7.850;2023-06-22T04:50:41;18.50;99.90
4215;DHT22;2121;48.062;7.850;2023-06-22T04:53:07;18.60;99.90
4215;DHT22;2121;48.062;7.850;2023-06-22T04:55:38;18.70;99.90
4215;DHT22;2121;48.062;7.850;2023-06-22T04:58:07;18.80;99.90
4215;DHT22;2121;48.062;7.850;2023-06-22T05:00:33;18.90;99.90
4215;DHT22;2121;48.062;7.850;2023-06-22T05:03:01;19.10;99.90
4215;DHT22;2121;48.062;7.850;2023-06-22T05:05:29;19.20;99.90
4215;DHT22;2121;48.062;7.850;2023-06-22T05:07:56;19.30;99.90
4215;DHT22;2121;48.062;7.850;2023-06-22T05:10:25;19.40;99.90
4215;DHT22;2121;48.062;7.850;2023-06-22T05:12:51;19.60;99.90
4215;DHT22;2121;48.062;7.850;2023-06-22T05:15:17;19.60;99.90
4215;DHT22;2121;48.062;7.850;2023-06-22T05:17:45;19.70;99.90
4215;DHT22;2121;48.062;7.850;2023-06-22T05:20:11;19.70;99.90
4215;DHT22;2121;48.062;7.850;2023-06-22T05:22:39;19.90;99.90
4215;DHT22;2121;48.062;7.850;2023-06-22T05:25:09;20.00;99.90
4215;DHT22;2121;48.062;7.850;2023-06-22T05:27:36;20.10;99.90
4215;DHT22;2121;48.062;7.850;2023-06-22T05:30:08;20.30;99.90
4215;DHT22;2121;48.062;7.850;2023-06-22T05:32:35;20.50;99.90
4215;DHT22;2121;48.062;7.850;2023-06-22T05:35:02;20.50;99.90
4215;DHT22;2121;48.062;7.850;2023-06-22T05:37:29;20.60;99.90
4215;DHT22;2121;48.062;7.850;2023-06-22T05:39:55;20.60;99.90
4215;DHT22;2121;48.062;7.850;2023-06-22T05:42:22;20.60;99.90
4215;DHT22;2121;48.062;7.850;2023-06-22T05:44:48;20.60;99.90
4215;DHT22;2121;48.062;7.850;2023-06-22T05:47:15;20.50;99.90
4215;DHT22;2121;48.062;7.850;2023-06-22T05:49:43;20.50;99.90
4215;DHT22;2121;48.062;7.850;2023-06-22T05:52:09;20.50;99.90
4215;DHT22;2121;48.062;7.850;2023-06-22T05:54:35;20.60;99.90
4215;DHT22;2121;48.062;7.850;2023-06-22T05:57:01;20.40;99.90
4215;DHT22;2121;48.062;7.850;2023-06-22T05:59:26;20.50;99.90
4215;DHT22;2121;48.062;7.850;2023-06-22T06:01:52;20.60;99.90
4215;DHT22;2121;48.062;7.850;2023-06-22T06:04:18;20.60;99.90
4215;DHT22;2121;48.062;7.850;2023-06-22T06:06:45;20.60;99.90
4215;DHT22;2121;48.062;7.850;2023-06-22T06:09:13;20.70;99.90
4215;DHT22;2121;48.062;7.850;2023-06-22T06:11:39;20.70;99.90
4215;DHT22;2121;48.062;7.850;2023-06-22T06:14:05;20.80;99.90
4215;DHT22;2121;48.062;7.850;2023-06-22T06:16:32;20.90;99.90
4215;DHT22;2121;48.062;7.850;2023-06-22T06:18:57;21.00;99.90
4215;DHT22;2121;48.062;7.850;2023-06-22T06:21:24;21.00;99.90
4215;DHT22;2121;48.062;7.850;2023-06-22T06:23:49;20.90;99.90
4215;DHT22;2121;48.062;7.850;2023-06-22T06:26:15;21.10;99.90
4215;DHT22;2121;48.062;7.850;2023-06-22T06:28:43;21.30;99.90
4215;DHT22;2121;48.062;7.850;2023-06-22T06:31:09;21.60;99.90
4215;DHT22;2121;48.062;7.850;2023-06-22T06:33:36;21.60;99.90
4215;DHT22;2121;48.062;7.850;2023-06-22T06:36:01;22.00;99.90
4215;DHT22;2121;48.062;7.850;2023-06-22T06:38:29;22.40;99.90
4215;DHT22;2121;48.062;7.850;2023-06-22T06:40:56;22.50;99.90
4215;DHT22;2121;48.062;7.850;2023-06-22T06:43:22;22.40;99.90
4215;DHT22;2121;48.062;7.850;2023-06-22T06:45:49;22.50;99.90
4215;DHT22;2121;48.062;7.850;2023-06-22T06:48:14;22.60;99.90
4215;DHT22;2121;48.062;7.850;2023-06-22T06:50:40;22.70;99.90
4215;DHT22;2121;48.062;7.850;2023-06-22T06:53:06;22.70;99.90
4215;DHT22;2121;48.062;7.850;2023-06-22T06:55:31;22.70;99.90
4215;DHT22;2121;48.062;7.850;2023-06-22T06:57:58;22.70;99.90
4215;DHT22;2121;48.062;7.850;2023-06-22T07:00:25;22.70;99.90
4215;DHT22;2121;48.062;7.850;2023-06-22T07:02:51;22.70;99.90
4215;DHT22;2121;48.062;7.850;2023-06-22T07:05:17;22.40;99.90
4215;DHT22;2121;48.062;7.850;2023-06-22T07:07:42;22.40;99.90
4215;DHT22;2121;48.062;7.850;2023-06-22T07:10:09;22.40;99.90
4215;DHT22;2121;48.062;7.850;2023-06-22T07:12:35;22.60;99.90
4215;DHT22;2121;48.062;7.850;2023-06-22T07:15:04;22.70;99.90
4215;DHT22;2121;48.062;7.850;2023-06-22T07:17:31;23.00;99.90
4215;DHT22;2121;48.062;7.850;2023-06-22T07:19:57;23.40;99.90
4215;DHT22;2121;48.062;7.850;2023-06-22T07:22:22;23.90;99.90
4215;DHT22;2121;48.062;7.850;2023-06-22T07:24:48;24.40;99.90
4215;DHT22;2121;48.062;7.850;2023-06-22T07:27:14;24.80;99.90
4215;DHT22;2121;48.062;7.850;2023-06-22T07:29:44;24.60;99.90
4215;DHT22;2121;48.062;7.850;2023-06-22T07:32:09;24.60;99.90
4215;DHT22;2121;48.062;7.850;2023-06-22T07:34:35;24.90;99.90
4215;DHT22;2121;48.062;7.850;2023-06-22T07:37:01;24.90;99.90
4215;DHT22;2121;48.062;7.850;2023-06-22T07:39:27;24.70;99.90
4215;DHT22;2121;48.062;7.850;2023-06-22T07:41:53;24.40;99.90
4215;DHT22;2121;48.062;7.850;2023-06-22T07:44:19;24.20;99.90
4215;DHT22;2121;48.062;7.850;2023-06-22T07:46:45;24.30;99.90
4215;DHT22;2121;48.062;7.850;2023-06-22T07:49:11;24.20;99.90
4215;DHT22;2121;48.062;7.850;2023-06-22T07:51:37;24.20;99.90
4215;DHT22;2121;48.062;7.850;2023-06-22T07:54:02;24.20;99.90
4215;DHT22;2121;48.062;7.850;2023-06-22T07:56:28;23.90;99.90
4215;DHT22;2121;48.062;7.850;2023-06-22T07:58:54;24.10;99.90
4215;DHT22;2121;48.062;7.850;2023-06-22T08:01:20;24.50;99.90
4215;DHT22;2121;48.062;7.850;2023-06-22T08:03:49;25.30;99.90
4215;DHT22;2121;48.062;7.850;2023-06-22T08:06:15;25.90;99.90
4215;DHT22;2121;48.062;7.850;2023-06-22T08:08:41;26.30;99.90
4215;DHT22;2121;48.062;7.850;2023-06-22T08:11:08;26.20;99.90
4215;DHT22;2121;48.062;7.850;2023-06-22T08:13:34;25.90;99.90
4215;DHT22;2121;48.062;7.850;2023-06-22T08:16:00;26.10;99.90
4215;DHT22;2121;48.062;7.850;2023-06-22T08:18:26;26.40;99.90
4215;DHT22;2121;48.062;7.850;2023-06-22T08:20:52;26.90;99.90
4215;DHT22;2121;48.062;7.850;2023-06-22T08:23:18;27.20;99.90
4215;DHT22;2121;48.062;7.850;2023-06-22T08:25:43;27.20;99.90
4215;DHT22;2121;48.062;7.850;2023-06-22T08:28:09;27.30;99.90
4215;DHT22;2121;48.062;7.850;2023-06-22T08:30:35;27.40;99.90
4215;DHT22;2121;48.062;7.850;2023-06-22T08:33:01;27.80;99.90
4215;DHT22;2121;48.062;7.850;2023-06-22T08:35:26;28.10;99.90
4215;DHT22;2121;48.062;7.850;2023-06-22T08:37:52;28.40;99.90
4215;DHT22;2121;48.062;7.850;2023-06-22T08:40:21;28.60;99.90
4215;DHT22;2121;48.062;7.850;2023-06-22T08:42:48;28.80;99.90
4215;DHT22;2121;48.062;7.850;2023-06-22T08:45:14;28.90;99.90
4215;DHT22;2121;48.062;7.850;2023-06-22T08:47:40;29.30;99.90
4215;DHT22;2121;48.062;7.850;2023-06-22T08:50:08;29.50;99.90
4215;DHT22;2121;48.062;7.850;2023-06-22T08:52:34;30.20;99.90
4215;DHT22;2121;48.062;7.850;2023-06-22T08:55:00;30.50;99.90
4215;DHT22;2121;48.062;7.850;2023-06-22T08:57:27;30.50;99.70
4215;DHT22;2121;48.062;7.850;2023-06-22T08:59:53;31.00;99.90
4215;DHT22;2121;48.062;7.850;2023-06-22T09:02:23;31.60;99.10
4215;DHT22;2121;48.062;7.850;2023-06-22T09:04:56;31.80;98.40
4215;DHT22;2121;48.062;7.850;2023-06-22T09:07:23;31.80;98.40
4215;DHT22;2121;48.062;7.850;2023-06-22T09:09:50;31.20;98.70
4215;DHT22;2121;48.062;7.850;2023-06-22T09:12:17;31.10;99.00
4215;DHT22;2121;48.062;7.850;2023-06-22T09:14:45;30.60;98.80
4215;DHT22;2121;48.062;7.850;2023-06-22T09:17:13;30.00;99.90
4215;DHT22;2121;48.062;7.850;2023-06-22T09:19:39;29.90;99.90
4215;DHT22;2121;48.062;7.850;2023-06-22T09:22:05;30.40;99.70
4215;DHT22;2121;48.062;7.850;2023-06-22T09:24:34;31.30;99.10
4215;DHT22;2121;48.062;7.850;2023-06-22T09:26:59;31.20;97.80
4215;DHT22;2121;48.062;7.850;2023-06-22T09:29:25;31.40;97.70
4215;DHT22;2121;48.062;7.850;2023-06-22T09:31:51;30.70;97.50
4215;DHT22;2121;48.062;7.850;2023-06-22T09:34:19;30.00;97.50
4215;DHT22;2121;48.062;7.850;2023-06-22T09:36:46;29.90;98.70
4215;DHT22;2121;48.062;7.850;2023-06-22T09:39:12;30.20;99.00
4215;DHT22;2121;48.062;7.850;2023-06-22T09:41:38;31.00;97.90
4215;DHT22;2121;48.062;7.850;2023-06-22T09:44:04;30.90;98.00
4215;DHT22;2121;48.062;7.850;2023-06-22T09:46:29;31.90;97.10
4215;DHT22;2121;48.062;7.850;2023-06-22T09:48:55;32.30;96.60
4215;DHT22;2121;48.062;7.850;2023-06-22T09:51:21;32.80;96.10
4215;DHT22;2121;48.062;7.850;2023-06-22T09:53:51;33.30;95.40
4215;DHT22;2121;48.062;7.850;2023-06-22T09:56:19;34.00;94.60
4215;DHT22;2121;48.062;7.850;2023-06-22T09:58:46;34.60;93.60
4215;DHT22;2121;48.062;7.850;2023-06-22T10:01:13;34.80;93.00
4215;DHT22;2121;48.062;7.850;2023-06-22T10:03:42;34.60;92.50
4215;DHT22;2121;48.062;7.850;2023-06-22T10:06:07;33.60;93.80
4215;DHT22;2121;48.062;7.850;2023-06-22T10:08:34;33.40;93.80
4215;DHT22;2121;48.062;7.850;2023-06-22T10:11:01;32.90;93.00
4215;DHT22;2121;48.062;7.850;2023-06-22T10:13:26;32.80;94.50
4215;DHT22;2121;48.062;7.850;2023-06-22T10:15:52;32.60;94.80
4215;DHT22;2121;48.062;7.850;2023-06-22T10:18:19;31.90;94.20
4215;DHT22;2121;48.062;7.850;2023-06-22T10:20:48;31.30;94.50
4215;DHT22;2121;48.062;7.850;2023-06-22T10:23:19;30.50;96.00
4215;DHT22;2121;48.062;7.850;2023-06-22T10:25:45;30.50;95.50
4215;DHT22;2121;48.062;7.850;2023-06-22T10:28:11;30.80;96.00
4215;DHT22;2121;48.062;7.850;2023-06-22T10:30:38;31.10;95.30
4215;DHT22;2121;48.062;7.850;2023-06-22T10:33:09;30.80;96.00
4215;DHT22;2121;48.062;7.850;2023-06-22T10:35:36;31.30;95.70
4215;DHT22;2121;48.062;7.850;2023-06-22T10:38:03;31.30;96.10
4215;DHT22;2121;48.062;7.850;2023-06-22T10:40:29;31.10;96.20
4215;DHT22;2121;48.062;7.850;2023-06-22T10:42:55;31.30;96.00
4215;DHT22;2121;48.062;7.850;2023-06-22T10:45:21;31.20;96.00
4215;DHT22;2121;48.062;7.850;2023-06-22T10:47:47;31.10;95.80
4215;DHT22;2121;48.062;7.850;2023-06-22T10:50:13;31.00;96.30
4215;DHT22;2121;48.062;7.850;2023-06-22T10:52:39;30.70;96.10
4215;DHT22;2121;48.062;7.850;2023-06-22T10:55:06;30.40;97.00
4215;DHT22;2121;48.062;7.850;2023-06-22T10:57:32;30.40;97.00
4215;DHT22;2121;48.062;7.850;2023-06-22T10:59:58;30.50;97.00
4215;DHT22;2121;48.062;7.850;2023-06-22T11:02:24;30.90;96.30
4215;DHT22;2121;48.062;7.850;2023-06-22T11:04:50;31.40;95.70
4215;DHT22;2121;48.062;7.850;2023-06-22T11:07:16;31.80;95.60
4215;DHT22;2121;48.062;7.850;2023-06-22T11:09:43;32.10;95.70
4215;DHT22;2121;48.062;7.850;2023-06-22T11:12:09;32.70;95.20
4215;DHT22;2121;48.062;7.850;2023-06-22T11:14:35;32.90;94.30
4215;DHT22;2121;48.062;7.850;2023-06-22T11:17:00;32.80;94.30
4215;DHT22;2121;48.062;7.850;2023-06-22T11:19:26;32.90;94.20
4215;DHT22;2121;48.062;7.850;2023-06-22T11:21:52;33.10;94.50
4215;DHT22;2121;48.062;7.850;2023-06-22T11:24:17;33.80;93.80
4215;DHT22;2121;48.062;7.850;2023-06-22T11:26:43;33.50;93.60
4215;DHT22;2121;48.062;7.850;2023-06-22T11:29:09;33.40;93.70
4215;DHT22;2121;48.062;7.850;2023-06-22T11:31:35;33.20;94.50
4215;DHT22;2121;48.062;7.850;2023-06-22T11:34:02;33.60;94.00
4215;DHT22;2121;48.062;7.850;2023-06-22T11:36:29;33.40;94.10
4215;DHT22;2121;48.062;7.850;2023-06-22T11:38:58;33.50;93.60
4215;DHT22;2121;48.062;7.850;2023-06-22T11:41:24;33.40;94.00
4215;DHT22;2121;48.062;7.850;2023-06-22T11:43:49;33.20;94.80
4215;DHT22;2121;48.062;7.850;2023-06-22T11:46:15;33.20;94.70
4215;DHT22;2121;48.062;7.850;2023-06-22T11:48:41;32.90;94.00
4215;DHT22;2121;48.062;7.850;2023-06-22T11:51:06;32.80;94.50
4215;DHT22;2121;48.062;7.850;2023-06-22T11:53:34;33.30;94.80
4215;DHT22;2121;48.062;7.850;2023-06-22T11:56:00;33.40;94.00
4215;DHT22;2121;48.062;7.850;2023-06-22T11:58:26;33.60;93.40
4215;DHT22;2121;48.062;7.850;2023-06-22T12:00:54;34.00;94.00
4215;DHT22;2121;48.062;7.850;2023-06-22T12:03:20;34.10;94.00
4215;DHT22;2121;48.062;7.850;2023-06-22T12:05:50;34.10;93.20
4215;DHT22;2121;48.062;7.850;2023-06-22T12:08:19;34.20;93.40
4215;DHT22;2121;48.062;7.850;2023-06-22T12:10:45;34.30;93.60
4215;DHT22;2121;48.062;7.850;2023-06-22T12:13:11;34.30;93.20
4215;DHT22;2121;48.062;7.850;2023-06-22T12:15:36;34.30;92.80
4215;DHT22;2121;48.062;7.850;2023-06-22T12:18:02;34.00;93.10
4215;DHT22;2121;48.062;7.850;2023-06-22T12:20:28;33.70;93.40
4215;DHT22;2121;48.062;7.850;2023-06-22T12:22:54;33.30;93.90
4215;DHT22;2121;48.062;7.850;2023-06-22T12:25:22;32.70;94.40
4215;DHT22;2121;48.062;7.850;2023-06-22T12:27:48;32.20;95.20
4215;DHT22;2121;48.062;7.850;2023-06-22T12:30:16;31.80;95.40
4215;DHT22;2121;48.062;7.850;2023-06-22T12:32:42;31.30;96.50
4215;DHT22;2121;48.062;7.850;2023-06-22T12:35:08;30.80;96.70
4215;DHT22;2121;48.062;7.850;2023-06-22T12:37:42;30.20;97.60
4215;DHT22;2121;48.062;7.850;2023-06-22T12:40:09;29.80;98.10
4215;DHT22;2121;48.062;7.850;2023-06-22T12:42:35;29.30;99.20
4215;DHT22;2121;48.062;7.850;2023-06-22T12:45:01;29.20;99.00
4215;DHT22;2121;48.062;7.850;2023-06-22T12:47:27;28.90;97.80
4215;DHT22;2121;48.062;7.850;2023-06-22T12:49:52;28.90;98.20
4215;DHT22;2121;48.062;7.850;2023-06-22T12:52:18;28.80;98.70
4215;DHT22;2121;48.062;7.850;2023-06-22T12:54:44;28.90;98.70
4215;DHT22;2121;48.062;7.850;2023-06-22T12:57:10;28.90;99.00
4215;DHT22;2121;48.062;7.850;2023-06-22T12:59:35;28.80;98.80
4215;DHT22;2121;48.062;7.850;2023-06-22T13:02:01;28.70;98.30
4215;DHT22;2121;48.062;7.850;2023-06-22T13:04:27;28.60;98.70
4215;DHT22;2121;48.062;7.850;2023-06-22T13:06:52;28.60;98.60
4215;DHT22;2121;48.062;7.850;2023-06-22T13:09:19;29.00;98.40
4215;DHT22;2121;48.062;7.850;2023-06-22T13:11:44;29.10;98.00
4215;DHT22;2121;48.062;7.850;2023-06-22T13:14:10;29.30;97.60
4215;DHT22;2121;48.062;7.850;2023-06-22T13:16:36;29.50;96.90
4215;DHT22;2121;48.062;7.850;2023-06-22T13:19:02;29.30;96.40
4215;DHT22;2121;48.062;7.850;2023-06-22T13:21:28;29.20;96.90
4215;DHT22;2121;48.062;7.850;2023-06-22T13:23:54;29.20;97.60
4215;DHT22;2121;48.062;7.850;2023-06-22T13:26:20;28.90;96.80
4215;DHT22;2121;48.062;7.850;2023-06-22T13:28:46;28.60;96.50
4215;DHT22;2121;48.062;7.850;2023-06-22T13:31:12;28.80;96.70
4215;DHT22;2121;48.062;7.850;2023-06-22T13:33:38;29.40;96.90
4215;DHT22;2121;48.062;7.850;2023-06-22T13:36:04;29.90;95.60
4215;DHT22;2121;48.062;7.850;2023-06-22T13:38:31;30.30;95.70
4215;DHT22;2121;48.062;7.850;2023-06-22T13:40:57;30.40;95.40
4215;DHT22;2121;48.062;7.850;2023-06-22T13:43:26;30.30;95.20
4215;DHT22;2121;48.062;7.850;2023-06-22T13:45:52;29.90;95.70
4215;DHT22;2121;48.062;7.850;2023-06-22T13:48:18;29.60;95.80
4215;DHT22;2121;48.062;7.850;2023-06-22T13:50:44;29.60;96.10
4215;DHT22;2121;48.062;7.850;2023-06-22T13:53:09;29.30;96.20
4215;DHT22;2121;48.062;7.850;2023-06-22T13:55:35;29.50;95.80
4215;DHT22;2121;48.062;7.850;2023-06-22T13:58:01;29.20;95.40
4215;DHT22;2121;48.062;7.850;2023-06-22T14:00:26;29.10;96.30
4215;DHT22;2121;48.062;7.850;2023-06-22T14:02:53;28.70;95.80
4215;DHT22;2121;48.062;7.850;2023-06-22T14:05:20;28.50;96.90
4215;DHT22;2121;48.062;7.850;2023-06-22T14:07:45;28.40;97.00
4215;DHT22;2121;48.062;7.850;2023-06-22T14:10:11;28.40;96.10
4215;DHT22;2121;48.062;7.850;2023-06-22T14:12:38;28.30;96.70
4215;DHT22;2121;48.062;7.850;2023-06-22T14:15:04;28.20;95.90
4215;DHT22;2121;48.062;7.850;2023-06-22T14:17:30;28.40;95.90
4215;DHT22;2121;48.062;7.850;2023-06-22T14:19:56;28.40;95.70
4215;DHT22;2121;48.062;7.850;2023-06-22T14:22:22;28.40;96.10
4215;DHT22;2121;48.062;7.850;2023-06-22T14:24:48;28.30;96.30
4215;DHT22;2121;48.062;7.850;2023-06-22T14:27:14;28.40;96.20
4215;DHT22;2121;48.062;7.850;2023-06-22T14:29:40;28.50;96.30
4215;DHT22;2121;48.062;7.850;2023-06-22T14:32:07;28.70;95.80
4215;DHT22;2121;48.062;7.850;2023-06-22T14:34:34;28.80;95.60
4215;DHT22;2121;48.062;7.850;2023-06-22T14:37:06;29.00;95.60
4215;DHT22;2121;48.062;7.850;2023-06-22T14:39:33;29.00;95.30
4215;DHT22;2121;48.062;7.850;2023-06-22T14:41:59;29.00;95.30
4215;DHT22;2121;48.062;7.850;2023-06-22T14:44:26;29.00;95.30
4215;DHT22;2121;48.062;7.850;2023-06-22T14:46:54;29.30;95.50
4215;DHT22;2121;48.062;7.850;2023-06-22T14:49:20;29.70;95.20
4215;DHT22;2121;48.062;7.850;2023-06-22T14:51:46;32.40;94.40
4215;DHT22;2121;48.062;7.850;2023-06-22T14:54:12;35.50;91.50
4215;DHT22;2121;48.062;7.850;2023-06-22T14:56:38;37.30;89.40
4215;DHT22;2121;48.062;7.850;2023-06-22T14:59:03;36.30;88.50
4215;DHT22;2121;48.062;7.850;2023-06-22T15:01:29;35.50;89.30
4215;DHT22;2121;48.062;7.850;2023-06-22T15:03:55;33.90;89.90
4215;DHT22;2121;48.062;7.850;2023-06-22T15:06:21;32.80;90.60
4215;DHT22;2121;48.062;7.850;2023-06-22T15:08:47;32.00;91.70
4215;DHT22;2121;48.062;7.850;2023-06-22T15:11:13;31.30;92.20
4215;DHT22;2121;48.062;7.850;2023-06-22T15:13:40;31.10;92.60
4215;DHT22;2121;48.062;7.850;2023-06-22T15:16:06;31.40;92.80
4215;DHT22;2121;48.062;7.850;2023-06-22T15:18:31;31.90;92.40
4215;DHT22;2121;48.062;7.850;2023-06-22T15:20:59;32.30;91.80
4215;DHT22;2121;48.062;7.850;2023-06-22T15:23:30;35.60;90.40
4215;DHT22;2121;48.062;7.850;2023-06-22T15:25:57;36.90;87.60
4215;DHT22;2121;48.062;7.850;2023-06-22T15:28:23;35.90;84.30
4215;DHT22;2121;48.062;7.850;2023-06-22T15:30:50;34.60;85.60
4215;DHT22;2121;48.062;7.850;2023-06-22T15:33:17;33.60;86.30
4215;DHT22;2121;48.062;7.850;2023-06-22T15:35:44;32.60;87.30
4215;DHT22;2121;48.062;7.850;2023-06-22T15:38:10;32.30;87.10
4215;DHT22;2121;48.062;7.850;2023-06-22T15:40:36;32.60;86.10
4215;DHT22;2121;48.062;7.850;2023-06-22T15:43:01;34.00;85.70
4215;DHT22;2121;48.062;7.850;2023-06-22T15:45:28;33.70;82.90
4215;DHT22;2121;48.062;7.850;2023-06-22T15:47:54;33.50;84.30
4215;DHT22;2121;48.062;7.850;2023-06-22T15:50:19;32.70;85.60
4215;DHT22;2121;48.062;7.850;2023-06-22T15:52:46;32.60;85.90
4215;DHT22;2121;48.062;7.850;2023-06-22T15:55:16;33.00;84.90
4215;DHT22;2121;48.062;7.850;2023-06-22T15:57:45;33.00;85.10
4215;DHT22;2121;48.062;7.850;2023-06-22T16:00:16;33.20;86.10
4215;DHT22;2121;48.062;7.850;2023-06-22T16:02:46;32.60;84.70
4215;DHT22;2121;48.062;7.850;2023-06-22T16:05:12;31.80;85.80